sensor_id;sensor_type;location;lat;lon;timestamp;P1;durP1;ratioP1;P2;durP2;ratioP2
1591;SDS011;789;51.612;7.510;2023-05-10T00:00:24;8.23;;;7.43;;
1591;SDS011;789;51.612;7.510;2023-05-10T00:02:51;8.57;;;7.77;;
1591;SDS011;789;51.612;7.510;2023-05-10T00:05:18;7.40;;;6.80;;
1591;SDS011;789;51.612;7.510;2023-05-10T00:07:45;8.27;;;7.57;;
1591;SDS011;789;51.612;7.510;2023-05-10T00:10:13;8.00;;;7.30;;
1591;SDS011;789;51.612;7.510;2023-05-10T00:12:40;8.77;;;8.00;;
1591;SDS011;789;51.612;7.510;2023-05-10T00:15:07;8.60;;;7.90;;
1591;SDS011;789;51.612;7.510;2023-05-10T00:17:35;9.50;;;8.50;;
1591;SDS011;789;51.612;7.510;2023-05-10T00:20:01;8.50;;;7.70;;
1591;SDS011;789;51.612;7.510;2023-05-10T00:22:29;9.00;;;8.10;;
1591;SDS011;789;51.612;7.510;2023-05-10T00:24:56;8.17;;;7.40;;
1591;SDS011;789;51.612;7.510;2023-05-10T00:27:24;8.60;;;7.80;;
1591;SDS011;789;51.612;7.510;2023-05-10T00:29:51;7.93;;;7.23;;
1591;SDS011;789;51.612;7.510;2023-05-10T00:32:18;8.33;;;7.63;;
1591;SDS011;789;51.612;7.510;2023-05-10T00:34:45;8.73;;;8.00;;
1591;SDS011;789;51.612;7.510;2023-05-10T00:37:12;7.37;;;6.57;;
1591;SDS011;789;51.612;7.510;2023-05-10T00:39:38;6.80;;;6.20;;
1591;SDS011;789;51.612;7.510;2023-05-10T00:42:05;5.80;;;5.23;;
1591;SDS011;789;51.612;7.510;2023-05-10T00:44:33;6.20;;;5.60;;
1591;SDS011;789;51.612;7.510;2023-05-10T00:47:00;6.87;;;6.33;;
1591;SDS011;789;51.612;7.510;2023-05-10T00:49:27;6.60;;;6.07;;
1591;SDS011;789;51.612;7.510;2023-05-10T00:51:55;7.00;;;6.40;;
1591;SDS011;789;51.612;7.510;2023-05-10T00:54:22;6.43;;;5.83;;
1591;SDS011;789;51.612;7.510;2023-05-10T00:56:48;6.57;;;5.87;;
1591;SDS011;789;51.612;7.510;2023-05-10T00:59:16;7.20;;;6.50;;
1591;SDS011;789;51.612;7.510;2023-05-10T01:01:45;6.90;;;6.30;;
1591;SDS011;789;51.612;7.510;2023-05-10T01:04:13;6.47;;;5.97;;
1591;SDS011;789;51.612;7.510;2023-05-10T01:06:40;6.10;;;5.50;;
1591;SDS011;789;51.612;7.510;2023-05-10T01:09:07;6.80;;;6.17;;
1591;SDS011;789;51.612;7.510;2023-05-10T01:11:34;6.10;;;5.60;;
1591;SDS011;789;51.612;7.510;2023-05-10T01:14:02;7.23;;;6.53;;
1591;SDS011;789;51.612;7.510;2023-05-10T01:16:32;7.73;;;7.00;;
1591;SDS011;789;51.612;7.510;2023-05-10T01:19:04;7.23;;;6.53;;
1591;SDS011;789;51.612;7.510;2023-05-10T01:21:32;7.70;;;7.00;;
1591;SDS011;789;51.612;7.510;2023-05-10T01:30:02;8.20;;;7.23;;
1591;SDS011;789;51.612;7.510;2023-05-10T01:32:41;7.50;;;6.80;;
1591;SDS011;789;51.612;7.510;2023-05-10T01:35:16;9.90;;;7.83;;
1591;SDS011;789;51.612;7.510;2023-05-10T01:37:47;8.47;;;7.67;;
1591;SDS011;789;51.612;7.510;2023-05-10T01:40:23;8.67;;;7.80;;
1591;SDS011;789;51.612;7.510;2023-05-10T01:42:59;8.83;;;7.50;;
1591;SDS011;789;51.612;7.510;2023-05-10T01:45:30;9.30;;;8.33;;
1591;SDS011;789;51.612;7.510;2023-05-10T01:48:05;11.00;;;9.90;;
1591;SDS011;789;51.612;7.510;2023-05-10T01:50:33;10.47;;;9.00;;
1591;SDS011;789;51.612;7.510;2023-05-10T01:53:02;11.50;;;9.70;;
1591;SDS011;789;51.612;7.510;2023-05-10T01:55:35;11.00;;;9.90;;
1591;SDS011;789;51.612;7.510;2023-05-10T01:58:07;11.27;;;10.07;;
1591;SDS011;789;51.612;7.510;2023-05-10T02:00:36;14.10;;;10.30;;
1591;SDS011;789;51.612;7.510;2023-05-10T02:03:07;10.27;;;9.37;;
1591;SDS011;789;51.612;7.510;2023-05-10T02:05:36;12.07;;;10.73;;
1591;SDS011;789;51.612;7.510;2023-05-10T02:08:05;12.07;;;10.83;;
1591;SDS011;789;51.612;7.510;2023-05-10T02:10:33;12.67;;;11.30;;
1591;SDS011;789;51.612;7.510;2023-05-10T02:13:01;20.47;;;12.30;;
1591;SDS011;789;51.612;7.510;2023-05-10T02:15:29;32.40;;;14.13;;
1591;SDS011;789;51.612;7.510;2023-05-10T02:17:57;32.97;;;14.27;;
1591;SDS011;789;51.612;7.510;2023-05-10T02:20:28;21.10;;;11.93;;
1591;SDS011;789;51.612;7.510;2023-05-10T02:22:57;15.77;;;8.10;;
1591;SDS011;789;51.612;7.510;2023-05-10T02:25:25;14.70;;;7.50;;
1591;SDS011;789;51.612;7.510;2023-05-10T02:27:55;16.83;;;7.27;;
1591;SDS011;789;51.612;7.510;2023-05-10T02:30:23;9.17;;;5.50;;
1591;SDS011;789;51.612;7.510;2023-05-10T02:32:52;6.67;;;4.97;;
1591;SDS011;789;51.612;7.510;2023-05-10T02:35:19;8.23;;;5.03;;
1591;SDS011;789;51.612;7.510;2023-05-10T02:37:49;6.73;;;4.07;;
1591;SDS011;789;51.612;7.510;2023-05-10T02:40:16;10.20;;;5.10;;
1591;SDS011;789;51.612;7.510;2023-05-10T02:42:45;6.07;;;4.30;;
1591;SDS011;789;51.612;7.510;2023-05-10T02:45:17;5.73;;;3.20;;
1591;SDS011;789;51.612;7.510;2023-05-10T02:47:46;9.60;;;4.10;;
1591;SDS011;789;51.612;7.510;2023-05-10T02:50:13;6.37;;;3.57;;
1591;SDS011;789;51.612;7.510;2023-05-10T02:52:42;3.77;;;3.00;;
1591;SDS011;789;51.612;7.510;2023-05-10T02:55:14;5.30;;;3.27;;
1591;SDS011;789;51.612;7.510;2023-05-10T02:57:43;5.40;;;3.37;;
1591;SDS011;789;51.612;7.510;2023-05-10T03:00:17;5.03;;;3.37;;
1591;SDS011;789;51.612;7.510;2023-05-10T03:02:44;8.30;;;3.70;;
1591;SDS011;789;51.612;7.510;2023-05-10T03:05:10;5.03;;;4.07;;
1591;SDS011;789;51.612;7.510;2023-05-10T03:07:37;5.10;;;4.20;;
1591;SDS011;789;51.612;7.510;2023-05-10T03:10:05;4.43;;;3.50;;
1591;SDS011;789;51.612;7.510;2023-05-10T03:12:41;2.63;;;2.43;;
1591;SDS011;789;51.612;7.510;2023-05-10T03:15:19;3.53;;;2.30;;
1591;SDS011;789;51.612;7.510;2023-05-10T03:17:56;1.77;;;1.60;;
1591;SDS011;789;51.612;7.510;2023-05-10T03:20:31;2.63;;;2.43;;
1591;SDS011;789;51.612;7.510;2023-05-10T03:23:02;1.97;;;1.77;;
1591;SDS011;789;51.612;7.510;2023-05-10T03:25:33;1.70;;;1.60;;
1591;SDS011;789;51.612;7.510;2023-05-10T03:28:02;2.00;;;1.83;;
1591;SDS011;789;51.612;7.510;2023-05-10T03:30:30;2.47;;;2.10;;
1591;SDS011;789;51.612;7.510;2023-05-10T03:32:58;2.47;;;2.27;;
1591;SDS011;789;51.612;7.510;2023-05-10T03:35:30;2.67;;;2.40;;
1591;SDS011;789;51.612;7.510;2023-05-10T03:37:57;3.20;;;2.70;;
1591;SDS011;789;51.612;7.510;2023-05-10T03:40:24;3.40;;;3.10;;
1591;SDS011;789;51.612;7.510;2023-05-10T03:42:53;4.57;;;2.87;;
1591;SDS011;789;51.612;7.510;2023-05-10T03:45:21;4.60;;;3.60;;
1591;SDS011;789;51.612;7.510;2023-05-10T03:47:48;4.20;;;3.80;;
1591;SDS011;789;51.612;7.510;2023-05-10T03:50:15;6.10;;;4.50;;
1591;SDS011;789;51.612;7.510;2023-05-10T03:52:43;5.97;;;5.10;;
1591;SDS011;789;51.612;7.510;2023-05-10T03:55:09;5.60;;;4.60;;
1591;SDS011;789;51.612;7.510;2023-05-10T03:57:38;6.53;;;5.40;;
1591;SDS011;789;51.612;7.510;2023-05-10T04:00:06;6.77;;;4.80;;
1591;SDS011;789;51.612;7.510;2023-05-10T04:02:34;5.70;;;5.17;;
1591;SDS011;789;51.612;7.510;2023-05-10T04:05:01;6.40;;;5.50;;
1591;SDS011;789;51.612;7.510;2023-05-10T04:07:28;7.20;;;5.60;;
1591;SDS011;789;51.612;7.510;2023-05-10T04:09:55;8.47;;;5.90;;
1591;SDS011;789;51.612;7.510;2023-05-10T04:12:22;6.90;;;6.20;;
1591;SDS011;789;51.612;7.510;2023-05-10T04:14:49;7.23;;;6.10;;
1591;SDS011;789;51.612;7.510;2023-05-10T04:17:16;6.80;;;6.10;;
1591;SDS011;789;51.612;7.510;2023-05-10T04:19:44;8.40;;;6.47;;
1591;SDS011;789;51.612;7.510;2023-05-10T04:22:11;7.20;;;6.13;;
1591;SDS011;789;51.612;7.510;2023-05-10T04:24:37;9.20;;;7.13;;
1591;SDS011;789;51.612;7.510;2023-05-10T04:27:04;11.30;;;7.67;;
1591;SDS011;789;51.612;7.510;2023-05-10T04:29:31;9.23;;;7.20;;
1591;SDS011;789;51.612;7.510;2023-05-10T04:31:58;8.93;;;7.30;;
1591;SDS011;789;51.612;7.510;2023-05-10T04:34:24;7.97;;;7.17;;
1591;SDS011;789;51.612;7.510;2023-05-10T04:36:52;9.00;;;7.67;;
1591;SDS011;789;51.612;7.510;2023-05-10T04:39:19;11.50;;;8.60;;
1591;SDS011;789;51.612;7.510;2023-05-10T04:41:46;10.83;;;8.80;;
1591;SDS011;789;51.612;7.510;2023-05-10T04:44:13;13.13;;;10.00;;
1591;SDS011;789;51.612;7.510;2023-05-10T04:46:39;13.93;;;10.67;;
1591;SDS011;789;51.612;7.510;2023-05-10T04:49:06;13.60;;;10.60;;
1591;SDS011;789;51.612;7.510;2023-05-10T04:51:33;14.73;;;10.40;;
1591;SDS011;789;51.612;7.510;2023-05-10T04:54:01;13.20;;;10.33;;
1591;SDS011;789;51.612;7.510;2023-05-10T04:56:28;17.23;;;13.30;;
1591;SDS011;789;51.612;7.510;2023-05-10T04:58:56;16.40;;;13.43;;
1591;SDS011;789;51.612;7.510;2023-05-10T05:01:23;21.03;;;14.87;;
1591;SDS011;789;51.612;7.510;2023-05-10T05:03:50;22.27;;;15.40;;
1591;SDS011;789;51.612;7.510;2023-05-10T05:06:17;23.97;;;16.77;;
1591;SDS011;789;51.612;7.510;2023-05-10T05:08:47;30.40;;;18.67;;
1591;SDS011;789;51.612;7.510;2023-05-10T05:11:20;28.33;;;21.07;;
1591;SDS011;789;51.612;7.510;2023-05-10T05:13:47;29.47;;;19.17;;
1591;SDS011;789;51.612;7.510;2023-05-10T05:16:14;30.20;;;21.23;;
1591;SDS011;789;51.612;7.510;2023-05-10T05:18:43;31.43;;;19.17;;
1591;SDS011;789;51.612;7.510;2023-05-10T05:21:13;32.70;;;21.70;;
1591;SDS011;789;51.612;7.510;2023-05-10T05:23:46;28.33;;;20.13;;
1591;SDS011;789;51.612;7.510;2023-05-10T05:26:13;33.07;;;21.33;;
1591;SDS011;789;51.612;7.510;2023-05-10T05:28:42;30.97;;;20.57;;
1591;SDS011;789;51.612;7.510;2023-05-10T05:31:12;34.17;;;22.27;;
1591;SDS011;789;51.612;7.510;2023-05-10T05:33:39;29.40;;;21.07;;
1591;SDS011;789;51.612;7.510;2023-05-10T05:36:06;35.43;;;22.40;;
1591;SDS011;789;51.612;7.510;2023-05-10T05:38:32;37.47;;;24.50;;
1591;SDS011;789;51.612;7.510;2023-05-10T05:40:59;34.63;;;23.83;;
1591;SDS011;789;51.612;7.510;2023-05-10T05:43:26;35.10;;;25.10;;
1591;SDS011;789;51.612;7.510;2023-05-10T05:45:54;46.30;;;24.57;;
1591;SDS011;789;51.612;7.510;2023-05-10T05:48:25;35.97;;;25.33;;
1591;SDS011;789;51.612;7.510;2023-05-10T05:50:54;37.53;;;25.80;;
1591;SDS011;789;51.612;7.510;2023-05-10T05:53:21;42.87;;;26.67;;
1591;SDS011;789;51.612;7.510;2023-05-10T05:55:51;42.50;;;28.07;;
1591;SDS011;789;51.612;7.510;2023-05-10T05:58:19;49.10;;;28.10;;
1591;SDS011;789;51.612;7.510;2023-05-10T06:00:46;42.67;;;29.20;;
1591;SDS011;789;51.612;7.510;2023-05-10T06:03:14;42.13;;;29.27;;
1591;SDS011;789;51.612;7.510;2023-05-10T06:05:41;47.43;;;30.07;;
1591;SDS011;789;51.612;7.510;2023-05-10T06:08:08;49.33;;;31.97;;
1591;SDS011;789;51.612;7.510;2023-05-10T06:10:35;50.30;;;32.50;;
1591;SDS011;789;51.612;7.510;2023-05-10T06:13:02;47.50;;;30.80;;
1591;SDS011;789;51.612;7.510;2023-05-10T06:15:29;49.27;;;32.30;;
1591;SDS011;789;51.612;7.510;2023-05-10T06:17:55;49.10;;;31.80;;
1591;SDS011;789;51.612;7.510;2023-05-10T06:20:23;49.40;;;34.37;;
1591;SDS011;789;51.612;7.510;2023-05-10T06:22:51;51.70;;;34.97;;
1591;SDS011;789;51.612;7.510;2023-05-10T06:25:17;49.47;;;32.27;;
1591;SDS011;789;51.612;7.510;2023-05-10T06:27:44;53.20;;;32.93;;
1591;SDS011;789;51.612;7.510;2023-05-10T06:30:11;52.63;;;33.27;;
1591;SDS011;789;51.612;7.510;2023-05-10T06:32:40;54.03;;;36.30;;
1591;SDS011;789;51.612;7.510;2023-05-10T06:35:10;61.73;;;37.73;;
1591;SDS011;789;51.612;7.510;2023-05-10T06:37:39;57.70;;;36.40;;
1591;SDS011;789;51.612;7.510;2023-05-10T06:40:06;58.93;;;37.03;;
1591;SDS011;789;51.612;7.510;2023-05-10T06:42:34;57.70;;;38.00;;
1591;SDS011;789;51.612;7.510;2023-05-10T06:45:01;53.50;;;36.60;;
1591;SDS011;789;51.612;7.510;2023-05-10T06:47:28;53.10;;;37.50;;
1591;SDS011;789;51.612;7.510;2023-05-10T06:49:55;53.07;;;37.67;;
1591;SDS011;789;51.612;7.510;2023-05-10T06:52:22;53.80;;;37.43;;
1591;SDS011;789;51.612;7.510;2023-05-10T06:54:51;52.00;;;34.90;;
1591;SDS011;789;51.612;7.510;2023-05-10T06:57:18;51.60;;;35.50;;
1591;SDS011;789;51.612;7.510;2023-05-10T06:59:45;48.60;;;34.87;;
1591;SDS011;789;51.612;7.510;2023-05-10T07:02:12;46.83;;;32.57;;
1591;SDS011;789;51.612;7.510;2023-05-10T07:04:39;43.07;;;32.43;;
1591;SDS011;789;51.612;7.510;2023-05-10T07:07:06;43.67;;;31.93;;
1591;SDS011;789;51.612;7.510;2023-05-10T07:09:33;45.13;;;31.90;;
1591;SDS011;789;51.612;7.510;2023-05-10T07:12:01;42.77;;;31.70;;
1591;SDS011;789;51.612;7.510;2023-05-10T07:14:28;48.37;;;32.20;;
1591;SDS011;789;51.612;7.510;2023-05-10T07:16:58;43.17;;;32.07;;
1591;SDS011;789;51.612;7.510;2023-05-10T07:19:27;46.17;;;31.90;;
1591;SDS011;789;51.612;7.510;2023-05-10T07:21:55;44.10;;;32.47;;
1591;SDS011;789;51.612;7.510;2023-05-10T07:24:22;44.83;;;32.90;;
1591;SDS011;789;51.612;7.510;2023-05-10T07:26:49;42.93;;;31.20;;
1591;SDS011;789;51.612;7.510;2023-05-10T07:29:17;37.77;;;28.90;;
1591;SDS011;789;51.612;7.510;2023-05-10T07:31:44;40.03;;;30.10;;
1591;SDS011;789;51.612;7.510;2023-05-10T07:34:10;38.93;;;28.90;;
1591;SDS011;789;51.612;7.510;2023-05-10T07:36:37;38.33;;;30.30;;
1591;SDS011;789;51.612;7.510;2023-05-10T07:39:06;36.73;;;28.73;;
1591;SDS011;789;51.612;7.510;2023-05-10T07:41:32;33.13;;;27.90;;
1591;SDS011;789;51.612;7.510;2023-05-10T07:43:59;35.63;;;26.83;;
1591;SDS011;789;51.612;7.510;2023-05-10T07:46:27;27.73;;;24.00;;
1591;SDS011;789;51.612;7.510;2023-05-10T07:48:54;30.90;;;25.50;;
1591;SDS011;789;51.612;7.510;2023-05-10T07:51:21;30.80;;;26.07;;
1591;SDS011;789;51.612;7.510;2023-05-10T07:53:48;30.10;;;25.57;;
1591;SDS011;789;51.612;7.510;2023-05-10T07:56:21;30.00;;;26.03;;
1591;SDS011;789;51.612;7.510;2023-05-10T07:58:50;32.30;;;27.80;;
1591;SDS011;789;51.612;7.510;2023-05-10T08:01:17;37.60;;;31.47;;
1591;SDS011;789;51.612;7.510;2023-05-10T08:03:48;36.40;;;31.97;;
1591;SDS011;789;51.612;7.510;2023-05-10T08:06:18;34.77;;;30.97;;
1591;SDS011;789;51.612;7.510;2023-05-10T08:08:46;31.43;;;28.13;;
1591;SDS011;789;51.612;7.510;2023-05-10T08:11:15;34.47;;;30.40;;
1591;SDS011;789;51.612;7.510;2023-05-10T08:13:42;42.53;;;32.87;;
1591;SDS011;789;51.612;7.510;2023-05-10T08:16:17;34.37;;;30.93;;
1591;SDS011;789;51.612;7.510;2023-05-10T08:18:44;36.17;;;32.37;;
1591;SDS011;789;51.612;7.510;2023-05-10T08:21:16;34.73;;;30.97;;
1591;SDS011;789;51.612;7.510;2023-05-10T08:23:46;33.17;;;29.67;;
1591;SDS011;789;51.612;7.510;2023-05-10T08:26:14;32.43;;;29.07;;
1591;SDS011;789;51.612;7.510;2023-05-10T08:28:41;33.37;;;29.87;;
1591;SDS011;789;51.612;7.510;2023-05-10T08:31:08;33.40;;;29.87;;
1591;SDS011;789;51.612;7.510;2023-05-10T08:33:35;35.07;;;31.60;;
1591;SDS011;789;51.612;7.510;2023-05-10T08:36:02;33.90;;;30.50;;
1591;SDS011;789;51.612;7.510;2023-05-10T08:38:30;37.53;;;33.80;;
1591;SDS011;789;51.612;7.510;2023-05-10T08:40:57;36.73;;;32.83;;
1591;SDS011;789;51.612;7.510;2023-05-10T08:43:26;40.27;;;33.57;;
1591;SDS011;789;51.612;7.510;2023-05-10T08:45:55;37.17;;;33.17;;
1591;SDS011;789;51.612;7.510;2023-05-10T08:48:23;36.40;;;32.60;;
1591;SDS011;789;51.612;7.510;2023-05-10T08:50:52;38.50;;;34.30;;
1591;SDS011;789;51.612;7.510;2023-05-10T08:53:20;35.27;;;31.33;;
1591;SDS011;789;51.612;7.510;2023-05-10T08:55:53;38.07;;;33.87;;
1591;SDS011;789;51.612;7.510;2023-05-10T08:58:21;37.67;;;33.57;;
1591;SDS011;789;51.612;7.510;2023-05-10T09:00:48;40.90;;;35.70;;
1591;SDS011;789;51.612;7.510;2023-05-10T09:03:17;42.83;;;36.93;;
1591;SDS011;789;51.612;7.510;2023-05-10T09:05:44;41.30;;;36.17;;
1591;SDS011;789;51.612;7.510;2023-05-10T09:08:11;43.50;;;35.57;;
1591;SDS011;789;51.612;7.510;2023-05-10T09:10:42;48.50;;;36.70;;
1591;SDS011;789;51.612;7.510;2023-05-10T09:13:18;41.60;;;34.20;;
1591;SDS011;789;51.612;7.510;2023-05-10T09:15:49;36.10;;;31.93;;
1591;SDS011;789;51.612;7.510;2023-05-10T09:18:16;37.30;;;29.90;;
1591;SDS011;789;51.612;7.510;2023-05-10T09:20:43;34.30;;;30.37;;
1591;SDS011;789;51.612;7.510;2023-05-10T09:23:12;37.17;;;30.07;;
1591;SDS011;789;51.612;7.510;2023-05-10T09:25:40;42.77;;;32.70;;
1591;SDS011;789;51.612;7.510;2023-05-10T09:28:10;38.00;;;32.43;;
1591;SDS011;789;51.612;7.510;2023-05-10T09:30:39;36.80;;;32.80;;
1591;SDS011;789;51.612;7.510;2023-05-10T09:33:07;41.83;;;33.27;;
1591;SDS011;789;51.612;7.510;2023-05-10T09:35:34;40.63;;;34.20;;
1591;SDS011;789;51.612;7.510;2023-05-10T09:38:02;32.20;;;28.13;;
1591;SDS011;789;51.612;7.510;2023-05-10T09:40:30;33.53;;;29.70;;
1591;SDS011;789;51.612;7.510;2023-05-10T09:42:58;36.33;;;30.70;;
1591;SDS011;789;51.612;7.510;2023-05-10T09:45:26;33.17;;;28.73;;
1591;SDS011;789;51.612;7.510;2023-05-10T09:47:56;34.40;;;29.10;;
1591;SDS011;789;51.612;7.510;2023-05-10T09:50:24;31.00;;;23.80;;
1591;SDS011;789;51.612;7.510;2023-05-10T09:52:53;28.37;;;22.33;;
1591;SDS011;789;51.612;7.510;2023-05-10T09:55:23;25.87;;;21.00;;
1591;SDS011;789;51.612;7.510;2023-05-10T09:57:58;24.30;;;20.43;;
1591;SDS011;789;51.612;7.510;2023-05-10T10:00:26;25.63;;;20.40;;
1591;SDS011;789;51.612;7.510;2023-05-10T10:02:53;28.17;;;20.43;;
1591;SDS011;789;51.612;7.510;2023-05-10T10:05:27;28.37;;;20.70;;
1591;SDS011;789;51.612;7.510;2023-05-10T10:07:55;24.00;;;18.00;;
1591;SDS011;789;51.612;7.510;2023-05-10T10:10:23;21.50;;;16.20;;
1591;SDS011;789;51.612;7.510;2023-05-10T10:12:50;17.00;;;14.57;;
1591;SDS011;789;51.612;7.510;2023-05-10T10:15:17;16.60;;;14.03;;
1591;SDS011;789;51.612;7.510;2023-05-10T10:17:44;17.20;;;14.63;;
1591;SDS011;789;51.612;7.510;2023-05-10T10:20:15;18.50;;;13.60;;
1591;SDS011;789;51.612;7.510;2023-05-10T10:22:43;19.53;;;15.00;;
1591;SDS011;789;51.612;7.510;2023-05-10T10:25:11;16.20;;;13.53;;
1591;SDS011;789;51.612;7.510;2023-05-10T10:27:43;16.03;;;13.40;;
1591;SDS011;789;51.612;7.510;2023-05-10T10:30:23;13.07;;;11.67;;
1591;SDS011;789;51.612;7.510;2023-05-10T10:33:01;12.80;;;11.50;;
1591;SDS011;789;51.612;7.510;2023-05-10T10:35:41;14.93;;;12.27;;
1591;SDS011;789;51.612;7.510;2023-05-10T10:38:10;13.50;;;12.10;;
1591;SDS011;789;51.612;7.510;2023-05-10T10:40:38;15.40;;;13.17;;
1591;SDS011;789;51.612;7.510;2023-05-10T10:48:47;18.63;;;16.23;;
1591;SDS011;789;51.612;7.510;2023-05-10T10:51:16;17.80;;;16.10;;
1591;SDS011;789;51.612;7.510;2023-05-10T10:53:43;17.33;;;15.60;;
1591;SDS011;789;51.612;7.510;2023-05-10T10:56:10;15.50;;;13.90;;
1591;SDS011;789;51.612;7.510;2023-05-10T10:58:40;17.77;;;15.00;;
1591;SDS011;789;51.612;7.510;2023-05-10T11:01:11;16.07;;;14.37;;
1591;SDS011;789;51.612;7.510;2023-05-10T11:03:39;15.00;;;13.60;;
1591;SDS011;789;51.612;7.510;2023-05-10T11:06:05;14.43;;;13.00;;
1591;SDS011;789;51.612;7.510;2023-05-10T11:08:41;24.37;;;21.83;;
1591;SDS011;789;51.612;7.510;2023-05-10T11:11:09;27.47;;;23.50;;
1591;SDS011;789;51.612;7.510;2023-05-10T11:13:41;29.57;;;24.00;;
1591;SDS011;789;51.612;7.510;2023-05-10T11:16:10;33.00;;;25.40;;
1591;SDS011;789;51.612;7.510;2023-05-10T11:18:40;27.07;;;24.17;;
1591;SDS011;789;51.612;7.510;2023-05-10T11:21:17;32.30;;;24.57;;
1591;SDS011;789;51.612;7.510;2023-05-10T11:23:49;34.37;;;28.03;;
1591;SDS011;789;51.612;7.510;2023-05-10T11:26:22;33.80;;;26.10;;
1591;SDS011;789;51.612;7.510;2023-05-10T11:28:53;29.13;;;25.90;;
1591;SDS011;789;51.612;7.510;2023-05-10T11:31:22;29.53;;;24.60;;
1591;SDS011;789;51.612;7.510;2023-05-10T11:33:52;30.97;;;25.10;;
1591;SDS011;789;51.612;7.510;2023-05-10T11:36:20;29.83;;;22.23;;
1591;SDS011;789;51.612;7.510;2023-05-10T11:38:51;30.00;;;22.50;;
1591;SDS011;789;51.612;7.510;2023-05-10T11:41:19;23.90;;;21.00;;
1591;SDS011;789;51.612;7.510;2023-05-10T11:43:50;22.67;;;19.53;;
1591;SDS011;789;51.612;7.510;2023-05-10T11:46:19;23.53;;;19.77;;
1591;SDS011;789;51.612;7.510;2023-05-10T11:48:48;29.77;;;19.53;;
1591;SDS011;789;51.612;7.510;2023-05-10T11:51:19;20.80;;;17.80;;
1591;SDS011;789;51.612;7.510;2023-05-10T11:53:57;20.93;;;17.90;;
1591;SDS011;789;51.612;7.510;2023-05-10T11:56:24;21.00;;;16.80;;
1591;SDS011;789;51.612;7.510;2023-05-10T11:58:54;25.97;;;19.30;;
1591;SDS011;789;51.612;7.510;2023-05-10T12:01:22;22.03;;;18.57;;
1591;SDS011;789;51.612;7.510;2023-05-10T12:03:50;22.07;;;19.67;;
1591;SDS011;789;51.612;7.510;2023-05-10T12:06:19;31.83;;;22.50;;
1591;SDS011;789;51.612;7.510;2023-05-10T12:08:49;28.00;;;25.00;;
1591;SDS011;789;51.612;7.510;2023-05-10T12:11:20;34.00;;;28.40;;
1591;SDS011;789;51.612;7.510;2023-05-10T12:13:50;32.17;;;28.77;;
1591;SDS011;789;51.612;7.510;2023-05-10T12:16:18;34.20;;;30.10;;
1591;SDS011;789;51.612;7.510;2023-05-10T12:18:50;38.90;;;31.70;;
1591;SDS011;789;51.612;7.510;2023-05-10T12:21:21;32.70;;;29.40;;
1591;SDS011;789;51.612;7.510;2023-05-10T12:23:49;32.13;;;28.73;;
1591;SDS011;789;51.612;7.510;2023-05-10T12:26:18;31.57;;;27.73;;
1591;SDS011;789;51.612;7.510;2023-05-10T12:28:52;30.30;;;27.00;;
1591;SDS011;789;51.612;7.510;2023-05-10T12:31:19;33.60;;;27.40;;
1591;SDS011;789;51.612;7.510;2023-05-10T12:33:48;31.00;;;27.43;;
1591;SDS011;789;51.612;7.510;2023-05-10T12:36:16;29.80;;;25.67;;
1591;SDS011;789;51.612;7.510;2023-05-10T12:38:51;29.30;;;25.40;;
1591;SDS011;789;51.612;7.510;2023-05-10T12:41:29;32.23;;;26.93;;
1591;SDS011;789;51.612;7.510;2023-05-10T12:43:56;28.23;;;25.17;;
1591;SDS011;789;51.612;7.510;2023-05-10T12:46:23;30.33;;;27.00;;
1591;SDS011;789;51.612;7.510;2023-05-10T12:48:52;26.90;;;24.03;;
1591;SDS011;789;51.612;7.510;2023-05-10T12:51:20;28.03;;;25.00;;
1591;SDS011;789;51.612;7.510;2023-05-10T12:53:47;26.00;;;23.27;;
1591;SDS011;789;51.612;7.510;2023-05-10T12:56:18;23.80;;;21.37;;
1591;SDS011;789;51.612;7.510;2023-05-10T12:58:48;22.17;;;19.97;;
1591;SDS011;789;51.612;7.510;2023-05-10T13:01:16;19.63;;;17.60;;
1591;SDS011;789;51.612;7.510;2023-05-10T13:03:43;13.90;;;12.40;;
1591;SDS011;789;51.612;7.510;2023-05-10T13:06:10;19.47;;;13.93;;
1591;SDS011;789;51.612;7.510;2023-05-10T13:08:38;15.63;;;13.17;;
1591;SDS011;789;51.612;7.510;2023-05-10T13:11:05;14.60;;;12.33;;
1591;SDS011;789;51.612;7.510;2023-05-10T13:13:32;13.67;;;12.27;;
1591;SDS011;789;51.612;7.510;2023-05-10T13:16:03;16.13;;;13.23;;
1591;SDS011;789;51.612;7.510;2023-05-10T13:18:30;15.93;;;14.23;;
1591;SDS011;789;51.612;7.510;2023-05-10T13:20:57;14.37;;;12.97;;
1591;SDS011;789;51.612;7.510;2023-05-10T13:23:24;13.20;;;11.90;;
1591;SDS011;789;51.612;7.510;2023-05-10T13:25:51;12.13;;;10.73;;
1591;SDS011;789;51.612;7.510;2023-05-10T13:28:18;14.93;;;12.50;;
1591;SDS011;789;51.612;7.510;2023-05-10T13:30:46;15.33;;;11.27;;
1591;SDS011;789;51.612;7.510;2023-05-10T13:33:15;11.23;;;9.93;;
1591;SDS011;789;51.612;7.510;2023-05-10T13:35:42;12.27;;;8.70;;
1591;SDS011;789;51.612;7.510;2023-05-10T13:38:11;11.43;;;10.23;;
1591;SDS011;789;51.612;7.510;2023-05-10T13:40:40;10.40;;;9.40;;
1591;SDS011;789;51.612;7.510;2023-05-10T13:43:08;13.63;;;10.67;;
1591;SDS011;789;51.612;7.510;2023-05-10T13:45:37;13.57;;;12.17;;
1591;SDS011;789;51.612;7.510;2023-05-10T13:48:04;14.20;;;12.80;;
1591;SDS011;789;51.612;7.510;2023-05-10T13:50:35;17.83;;;15.93;;
1591;SDS011;789;51.612;7.510;2023-05-10T13:53:02;18.73;;;16.93;;
1591;SDS011;789;51.612;7.510;2023-05-10T13:55:31;21.77;;;19.57;;
1591;SDS011;789;51.612;7.510;2023-05-10T13:57:58;24.63;;;22.23;;
1591;SDS011;789;51.612;7.510;2023-05-10T14:00:25;24.70;;;22.30;;
1591;SDS011;789;51.612;7.510;2023-05-10T14:02:53;23.47;;;21.17;;
1591;SDS011;789;51.612;7.510;2023-05-10T14:05:20;21.03;;;18.93;;
1591;SDS011;789;51.612;7.510;2023-05-10T14:07:49;21.77;;;19.67;;
1591;SDS011;789;51.612;7.510;2023-05-10T14:10:20;19.63;;;17.73;;
1591;SDS011;789;51.612;7.510;2023-05-10T14:12:47;20.43;;;18.27;;
1591;SDS011;789;51.612;7.510;2023-05-10T14:15:13;18.87;;;16.83;;
1591;SDS011;789;51.612;7.510;2023-05-10T14:17:40;18.57;;;16.83;;
1591;SDS011;789;51.612;7.510;2023-05-10T14:20:07;18.23;;;16.53;;
1591;SDS011;789;51.612;7.510;2023-05-10T14:22:37;18.30;;;16.40;;
1591;SDS011;789;51.612;7.510;2023-05-10T14:25:08;20.77;;;17.43;;
1591;SDS011;789;51.612;7.510;2023-05-10T14:27:36;19.57;;;16.00;;
1591;SDS011;789;51.612;7.510;2023-05-10T14:30:03;17.23;;;15.70;;
1591;SDS011;789;51.612;7.510;2023-05-10T14:32:31;18.57;;;16.60;;
1591;SDS011;789;51.612;7.510;2023-05-10T14:34:59;16.30;;;14.80;;
1591;SDS011;789;51.612;7.510;2023-05-10T14:37:25;12.50;;;11.30;;
1591;SDS011;789;51.612;7.510;2023-05-10T14:39:55;12.23;;;11.00;;
1591;SDS011;789;51.612;7.510;2023-05-10T14:42:24;17.37;;;14.37;;
1591;SDS011;789;51.612;7.510;2023-05-10T14:44:51;11.17;;;9.80;;
1591;SDS011;789;51.612;7.510;2023-05-10T14:47:18;12.43;;;10.30;;
1591;SDS011;789;51.612;7.510;2023-05-10T14:49:45;11.63;;;10.53;;
1591;SDS011;789;51.612;7.510;2023-05-10T14:52:12;11.63;;;9.27;;
1591;SDS011;789;51.612;7.510;2023-05-10T14:54:39;10.00;;;9.00;;
1591;SDS011;789;51.612;7.510;2023-05-10T14:57:08;10.27;;;9.37;;
1591;SDS011;789;51.612;7.510;2023-05-10T14:59:36;9.70;;;8.80;;
1591;SDS011;789;51.612;7.510;2023-05-10T15:02:03;9.63;;;8.60;;
1591;SDS011;789;51.612;7.510;2023-05-10T15:04:30;9.27;;;8.37;;
1591;SDS011;789;51.612;7.510;2023-05-10T15:06:57;9.83;;;7.80;;
1591;SDS011;789;51.612;7.510;2023-05-10T15:09:24;10.00;;;8.20;;
1591;SDS011;789;51.612;7.510;2023-05-10T15:11:52;8.50;;;7.70;;
1591;SDS011;789;51.612;7.510;2023-05-10T15:14:19;8.40;;;6.87;;
1591;SDS011;789;51.612;7.510;2023-05-10T15:16:47;8.57;;;6.90;;
1591;SDS011;789;51.612;7.510;2023-05-10T15:19:14;8.10;;;6.63;;
1591;SDS011;789;51.612;7.510;2023-05-10T15:21:40;9.03;;;6.23;;
1591;SDS011;789;51.612;7.510;2023-05-10T15:24:09;7.13;;;6.40;;
1591;SDS011;789;51.612;7.510;2023-05-10T15:26:36;6.57;;;5.40;;
1591;SDS011;789;51.612;7.510;2023-05-10T15:29:02;8.17;;;6.07;;